Decoded Metar for KGCK (GARDEN CITY in KS, USA) (IATA:GCK) | Meteo·Mobile Aviation Weather
aviador You're here:

KGCK Decoded Metar

GARDEN CITY in KS, USA
Report Time2019-03-21 21:54:00
UTC Time2019-03-22 09:57:09
Flight Rules Old
Wind220° at 07 kt
W.Decomp.*RWY 17: 5.3 kt HW 4.6 kt RCW
RWY 30: 0.1 kt HW 7 kt LCW
W.Rank220° ranks 21
Current wind is below 220° avg. (9.9)
Visibility9999 m
Phenomena:N/A
Clouds:N/A
Expected CloudBase > 8,000 ft AGL from Temp-Dew spread
CeilingNone
Temp17°C (ISA +8)
Dew Point-3°C (25% RH)
AAT12.1°C
QNH1021 hPa
Density Alt3,583 ft
Elevation2,877 ft
Report Wrong Elevation
Raw Report
KGCK 212154Z 22007KT 10SM CLR 17/M03 A3014 RMK AO2 SLP207
T01721028=

Extra information for KGCK:More info

Metar Taf Metar & Taf Last 4 Metars F.Rules Stats Wind Profile Meteogram Temp Stats Airport Information Weather charts Add Link Nearby VenuesMetar ALERT Operation Metar Decoded Social comments

AIRNAV info for KGCK